Time;durP1;ratioP1;P1;durP2;ratioP2;P2;SDS_P1;SDS_P2;PMS_P1;PMS_P2;Temp;Humidity;BMP_temperature;BMP_pressure;BME280_temperature;BME280_humidity;BME280_pressure;Samples;Min_cycle;Max_cycle;Signal;HPM_P1;HPM_P2
2021/05/10 00:00:07;;;;;;;12.63;2.40;;;13.90;68.60;;;;;;4985269;28;20030;-79
2021/05/10 00:02:33;;;;;;;12.35;2.47;;;13.90;68.90;;;;;;4998410;28;20092;-79
2021/05/10 00:04:59;;;;;;;12.48;2.42;;;13.90;68.50;;;;;;4997748;28;20026;-79
2021/05/10 00:07:25;;;;;;;8.23;2.20;;;14.00;69.00;;;;;;4997744;28;20030;-79
2021/05/10 00:09:51;;;;;;;15.80;3.03;;;13.90;68.90;;;;;;4997966;28;20033;-79
2021/05/10 00:12:17;;;;;;;14.35;2.60;;;13.90;69.30;;;;;;4997570;28;20481;-78
2021/05/10 00:14:44;;;;;;;18.55;3.55;;;13.90;69.30;;;;;;4997818;28;20019;-79
2021/05/10 00:17:11;;;;;;;14.15;2.60;;;13.90;69.50;;;;;;4996935;28;20050;-78
2021/05/10 00:19:37;;;;;;;11.38;3.35;;;13.90;69.20;;;;;;4985514;28;20133;-79
2021/05/10 00:22:04;;;;;;;10.10;3.35;;;13.80;69.00;;;;;;4997654;28;20025;-78
2021/05/10 00:24:30;;;;;;;13.27;2.60;;;13.80;68.90;;;;;;4997135;28;20029;-79
2021/05/10 00:26:55;;;;;;;12.35;2.60;;;13.80;68.80;;;;;;4997989;28;20027;-79
2021/05/10 00:29:21;;;;;;;14.13;2.45;;;13.80;69.10;;;;;;4997430;28;20033;-79
2021/05/10 00:31:48;;;;;;;13.80;2.83;;;13.70;69.40;;;;;;4998064;28;20068;-79
2021/05/10 00:34:15;;;;;;;10.68;2.83;;;13.70;69.60;;;;;;4996757;28;20023;-79
2021/05/10 00:36:41;;;;;;;8.93;1.95;;;13.70;69.50;;;;;;4998222;28;20528;-79
2021/05/10 00:39:07;;;;;;;12.23;3.78;;;13.60;69.40;;;;;;4991280;28;20053;-79
2021/05/10 00:41:34;;;;;;;10.43;2.78;;;13.60;68.90;;;;;;4980191;28;20027;-79
2021/05/10 00:44:00;;;;;;;9.38;2.88;;;13.60;68.70;;;;;;4998003;28;20022;-79
2021/05/10 00:46:26;;;;;;;12.48;2.22;;;13.60;68.80;;;;;;4997371;28;20035;-79
2021/05/10 00:48:52;;;;;;;15.85;3.05;;;13.60;69.20;;;;;;4997910;28;20073;-79
2021/05/10 00:51:19;;;;;;;12.82;3.25;;;13.60;69.60;;;;;;4997266;28;20481;-79
2021/05/10 00:53:44;;;;;;;15.30;3.65;;;13.60;69.40;;;;;;4997678;28;20046;-79
2021/05/10 00:56:11;;;;;;;15.55;3.15;;;13.60;69.40;;;;;;4997275;28;20084;-79
2021/05/10 00:58:39;;;;;;;14.35;2.95;;;13.50;68.70;;;;;;4997576;28;20034;-79
2021/05/10 01:01:05;;;;;;;12.43;2.30;;;13.50;69.10;;;;;;4997230;28;20113;-79
2021/05/10 01:03:31;;;;;;;17.60;3.25;;;13.50;68.90;;;;;;4977739;28;20046;-79
2021/05/10 01:05:58;;;;;;;13.77;2.55;;;13.50;69.60;;;;;;4980249;28;20073;-79
2021/05/10 01:08:24;;;;;;;16.38;2.60;;;13.40;69.30;;;;;;4996340;28;20014;-79
2021/05/10 01:10:50;;;;;;;8.57;2.30;;;13.40;69.70;;;;;;4997091;28;20058;-79
2021/05/10 01:13:16;;;;;;;16.38;2.95;;;13.40;69.00;;;;;;4977739;28;20035;-79
2021/05/10 01:15:42;;;;;;;12.43;3.70;;;13.40;69.50;;;;;;4996958;28;20085;-79
2021/05/10 01:18:08;;;;;;;17.38;3.05;;;13.30;69.50;;;;;;4997969;28;20018;-79
2021/05/10 01:20:36;;;;;;;19.55;3.60;;;13.30;69.00;;;;;;4997433;28;20082;-79
2021/05/10 01:23:02;;;;;;;13.25;2.85;;;13.30;69.90;;;;;;4996869;28;20058;-79
2021/05/10 01:25:31;;;;;;;19.83;4.25;;;13.30;70.00;;;;;;4994476;28;20485;-79
2021/05/10 01:27:58;;;;;;;10.75;2.92;;;13.20;69.50;;;;;;4995749;28;20038;-79
2021/05/10 01:30:37;;;;;;;18.90;3.28;;;13.20;69.80;;;;;;4983035;28;20421;-79
2021/05/10 01:33:05;;;;;;;15.48;2.95;;;13.20;70.40;;;;;;5001277;28;20018;-79
2021/05/10 01:35:51;;;;;;;16.20;2.75;;;13.20;70.60;;;;;;5000437;28;20077;-79
2021/05/10 01:38:18;;;;;;;16.98;3.28;;;13.20;70.60;;;;;;5000268;28;20053;-79
2021/05/10 01:40:47;;;;;;;19.83;3.50;;;13.20;70.80;;;;;;4987413;28;20058;-79
2021/05/10 01:43:16;;;;;;;13.43;3.47;;;13.20;71.40;;;;;;5000555;28;20026;-79
2021/05/10 01:45:42;;;;;;;18.75;3.70;;;13.10;71.10;;;;;;4999702;28;20069;-79
2021/05/10 01:48:10;;;;;;;20.10;3.22;;;13.10;70.80;;;;;;5000255;28;20385;-79
2021/05/10 01:50:38;;;;;;;19.00;3.55;;;13.10;71.20;;;;;;5000839;28;20030;-79
2021/05/10 01:53:05;;;;;;;18.45;3.53;;;13.10;71.60;;;;;;5000237;28;20403;-78
2021/05/10 01:55:32;;;;;;;18.23;3.65;;;13.10;70.90;;;;;;5000383;28;20027;-79
2021/05/10 01:58:00;;;;;;;17.02;3.25;;;13.10;71.00;;;;;;5000346;28;20026;-79
2021/05/10 02:00:49;;;;;;;20.70;3.03;;;13.10;70.90;;;;;;4999534;28;20038;-79
2021/05/10 02:03:17;;;;;;;15.13;3.00;;;13.10;70.90;;;;;;5000669;28;20109;-79
2021/05/10 02:05:44;;;;;;;13.38;2.78;;;13.10;70.60;;;;;;5000445;28;20027;-79
2021/05/10 02:08:12;;;;;;;18.27;3.28;;;13.10;71.00;;;;;;5000184;28;20374;-79
2021/05/10 02:10:43;;;;;;;17.10;3.20;;;13.10;70.60;;;;;;4998970;28;20437;-79
2021/05/10 02:13:13;;;;;;;19.33;3.30;;;13.10;70.40;;;;;;5000433;28;20030;-79
2021/05/10 02:15:44;;;;;;;17.15;2.88;;;13.10;71.30;;;;;;4998867;28;20129;-79
2021/05/10 02:18:11;;;;;;;23.02;3.92;;;13.10;70.40;;;;;;4999653;28;20065;-79
2021/05/10 02:20:39;;;;;;;19.48;3.88;;;13.10;71.00;;;;;;5000364;28;20088;-79
2021/05/10 02:23:06;;;;;;;15.80;3.17;;;13.00;70.80;;;;;;4999408;28;20026;-79
2021/05/10 02:25:34;;;;;;;15.27;2.63;;;13.00;70.60;;;;;;4999489;28;20132;-79
2021/05/10 02:28:01;;;;;;;16.05;3.13;;;13.00;71.00;;;;;;5000126;28;20624;-79
2021/05/10 02:30:29;;;;;;;17.85;2.95;;;13.00;70.80;;;;;;4999323;28;20038;-79
2021/05/10 02:32:56;;;;;;;16.27;3.33;;;13.00;71.00;;;;;;4982330;28;20378;-79
2021/05/10 02:35:22;;;;;;;19.77;4.00;;;13.00;71.00;;;;;;4988278;28;20037;-79
2021/05/10 02:37:49;;;;;;;17.20;2.70;;;12.90;70.90;;;;;;4997755;28;20393;-79
2021/05/10 02:40:16;;;;;;;23.17;3.70;;;12.90;70.90;;;;;;4999297;28;20034;-79
2021/05/10 02:42:43;;;;;;;17.92;3.33;;;12.90;70.90;;;;;;4999485;28;20030;-79
2021/05/10 02:45:10;;;;;;;16.42;3.10;;;12.90;71.10;;;;;;4999422;28;20033;-79
2021/05/10 02:47:38;;;;;;;17.67;3.28;;;12.80;71.00;;;;;;4999980;28;20050;-79
2021/05/10 02:50:07;;;;;;;14.50;3.10;;;12.80;71.30;;;;;;4999141;28;20027;-78
2021/05/10 02:52:33;;;;;;;18.60;3.83;;;12.80;71.50;;;;;;4999614;28;20109;-79
2021/05/10 02:54:59;;;;;;;16.48;2.95;;;12.80;71.80;;;;;;4999610;28;20026;-79
2021/05/10 02:57:25;;;;;;;17.98;2.85;;;12.80;71.50;;;;;;4999526;28;20037;-79
2021/05/10 02:59:51;;;;;;;19.17;2.75;;;12.80;71.80;;;;;;4981059;28;20022;-79
2021/05/10 03:02:17;;;;;;;18.73;2.92;;;12.80;72.00;;;;;;4998941;28;20053;-79
2021/05/10 03:04:43;;;;;;;18.83;3.00;;;12.80;71.80;;;;;;4999391;28;20015;-79
2021/05/10 03:07:09;;;;;;;13.65;2.92;;;12.80;71.30;;;;;;4999264;28;20030;-79
2021/05/10 03:09:35;;;;;;;20.38;3.10;;;12.70;70.80;;;;;;4999043;28;20222;-79
2021/05/10 03:12:00;;;;;;;19.48;3.60;;;12.70;70.60;;;;;;4998984;28;20034;-80
2021/05/10 03:14:27;;;;;;;16.75;3.70;;;12.70;71.80;;;;;;4998148;28;20061;-79
2021/05/10 03:16:53;;;;;;;14.65;3.00;;;12.70;72.00;;;;;;4969950;28;20112;-80
2021/05/10 03:19:19;;;;;;;16.27;2.97;;;12.70;71.60;;;;;;4998765;28;20066;-79
2021/05/10 03:21:45;;;;;;;20.95;3.67;;;12.70;72.10;;;;;;4982273;28;20429;-79
2021/05/10 03:24:11;;;;;;;20.83;2.90;;;12.70;72.20;;;;;;4985515;28;20030;-79
2021/05/10 03:26:38;;;;;;;17.20;3.03;;;12.70;71.70;;;;;;4999008;28;20061;-79
2021/05/10 03:29:05;;;;;;;14.32;2.83;;;12.70;71.30;;;;;;4998946;28;20030;-79
2021/05/10 03:31:32;;;;;;;22.52;3.17;;;12.60;71.20;;;;;;4980387;28;20030;-79
2021/05/10 03:33:59;;;;;;;11.85;3.03;;;12.60;71.70;;;;;;4998247;28;20392;-79
2021/05/10 03:36:25;;;;;;;20.83;3.08;;;12.60;71.90;;;;;;4976602;28;20034;-79
2021/05/10 03:38:51;;;;;;;18.13;4.28;;;12.60;72.00;;;;;;4997988;28;20034;-80
2021/05/10 03:41:17;;;;;;;18.50;3.33;;;12.50;72.20;;;;;;4980809;28;20039;-79
2021/05/10 03:43:43;;;;;;;13.63;2.88;;;12.50;72.40;;;;;;4999184;28;20042;-79
2021/05/10 03:46:09;;;;;;;13.50;3.20;;;12.50;72.40;;;;;;4980611;28;20452;-79
2021/05/10 03:48:34;;;;;;;15.23;3.38;;;12.50;72.00;;;;;;4998564;28;20053;-79
2021/05/10 03:51:00;;;;;;;23.02;4.07;;;12.50;72.80;;;;;;4980012;28;20031;-79
2021/05/10 03:53:26;;;;;;;21.40;2.75;;;12.40;72.80;;;;;;4998289;28;20018;-79
2021/05/10 03:55:52;;;;;;;15.93;2.95;;;12.40;72.00;;;;;;4998137;28;20049;-79
2021/05/10 03:58:18;;;;;;;17.38;2.95;;;12.40;72.20;;;;;;4998183;28;20038;-79
2021/05/10 04:00:44;;;;;;;16.85;3.17;;;12.40;72.30;;;;;;4980229;28;20049;-79
2021/05/10 04:03:12;;;;;;;16.23;2.75;;;12.40;72.40;;;;;;4998434;28;20022;-79
2021/05/10 04:10:58;;;;;;;17.70;3.38;;;12.30;72.50;;;;;;4997131;28;20034;-79
2021/05/10 04:13:38;;;;;;;21.30;3.85;;;12.30;72.90;;;;;;4985578;28;20081;-79
2021/05/10 04:16:05;;;;;;;25.30;4.15;;;12.30;73.10;;;;;;4997305;28;20110;-79
2021/05/10 04:18:32;;;;;;;22.90;3.20;;;12.30;73.30;;;;;;4998045;28;20021;-79
2021/05/10 04:20:58;;;;;;;16.60;4.25;;;12.30;73.30;;;;;;4997198;28;20489;-79
2021/05/10 04:23:25;;;;;;;15.40;2.88;;;12.20;73.30;;;;;;4989926;28;20035;-79
2021/05/10 04:25:52;;;;;;;27.90;3.33;;;12.20;73.10;;;;;;4992424;28;20038;-79
2021/05/10 04:28:19;;;;;;;20.77;3.63;;;12.20;73.00;;;;;;4998129;28;20026;-79
2021/05/10 04:30:45;;;;;;;23.20;3.15;;;12.20;73.00;;;;;;4997215;28;20093;-79
2021/05/10 04:33:11;;;;;;;14.00;2.95;;;12.20;73.20;;;;;;4980031;28;20026;-79
2021/05/10 04:35:38;;;;;;;24.95;3.10;;;12.20;73.30;;;;;;4997621;28;20026;-79
2021/05/10 04:38:09;;;;;;;15.77;3.35;;;12.30;73.80;;;;;;4997727;28;20474;-79
2021/05/10 04:40:39;;;;;;;18.00;3.05;;;12.20;73.60;;;;;;4997523;28;20034;-79
2021/05/10 04:43:05;;;;;;;19.33;4.43;;;12.20;73.40;;;;;;4980204;28;20039;-79
2021/05/10 04:45:31;;;;;;;16.50;3.25;;;12.20;73.10;;;;;;4997121;28;20699;-79
2021/05/10 04:47:57;;;;;;;17.73;3.08;;;12.20;73.50;;;;;;4997818;28;20066;-79
2021/05/10 04:50:23;;;;;;;16.98;3.13;;;12.20;73.70;;;;;;4997470;28;20081;-79
2021/05/10 04:52:49;;;;;;;16.35;2.80;;;12.20;73.80;;;;;;4979382;28;20054;-79
2021/05/10 04:55:15;;;;;;;15.27;2.53;;;12.20;73.80;;;;;;4997350;28;20029;-79
2021/05/10 04:57:43;;;;;;;14.85;3.58;;;12.30;73.50;;;;;;4997338;28;20058;-80
2021/05/10 05:00:11;;;;;;;17.10;2.90;;;12.20;73.50;;;;;;4980045;28;20097;-80
2021/05/10 05:02:37;;;;;;;12.98;2.83;;;12.30;73.90;;;;;;4980669;28;20034;-79
2021/05/10 05:05:05;;;;;;;16.98;2.88;;;12.30;73.90;;;;;;5001265;28;20046;-80
2021/05/10 05:07:31;;;;;;;20.00;3.25;;;12.30;73.70;;;;;;5001213;28;20080;-79
2021/05/10 05:09:57;;;;;;;13.95;2.97;;;12.30;73.20;;;;;;4982274;28;20129;-82
2021/05/10 05:12:23;;;;;;;16.77;2.70;;;12.40;73.70;;;;;;5000477;28;20490;-78
2021/05/10 05:14:49;;;;;;;14.10;2.72;;;12.50;73.70;;;;;;5001304;28;20022;-78
2021/05/10 05:17:14;;;;;;;10.75;2.90;;;12.50;73.50;;;;;;5000684;28;20444;-79
2021/05/10 05:19:40;;;;;;;18.00;2.72;;;12.50;73.60;;;;;;5001110;28;20030;-79
2021/05/10 05:22:09;;;;;;;14.00;2.70;;;12.50;73.10;;;;;;4991599;28;20053;-75
2021/05/10 05:24:35;;;;;;;15.38;2.38;;;12.50;73.60;;;;;;4999449;28;20026;-73
2021/05/10 05:27:02;;;;;;;16.30;2.70;;;12.50;73.30;;;;;;5001232;28;20735;-77
2021/05/10 05:29:28;;;;;;;13.70;2.88;;;12.50;73.10;;;;;;5000648;28;20041;-72
2021/05/10 05:31:56;;;;;;;21.08;2.78;;;12.40;73.00;;;;;;5000852;28;20023;-73
2021/05/10 05:34:22;;;;;;;18.65;2.30;;;12.40;73.00;;;;;;5000180;28;20023;-72
2021/05/10 05:36:47;;;;;;;13.25;2.40;;;12.40;73.10;;;;;;5000885;28;20031;-71
2021/05/10 05:39:13;;;;;;;23.20;2.80;;;12.40;73.10;;;;;;5000687;28;20030;-71
2021/05/10 05:41:39;;;;;;;20.85;2.97;;;12.30;73.00;;;;;;5000337;28;20018;-71
2021/05/10 05:44:06;;;;;;;13.68;2.97;;;12.40;73.50;;;;;;5000222;28;20507;-75
2021/05/10 05:46:41;;;;;;;15.00;2.65;;;12.40;73.40;;;;;;4988052;28;20026;-71
2021/05/10 05:49:07;;;;;;;15.38;3.50;;;12.40;73.80;;;;;;5000469;28;20030;-72
2021/05/10 05:51:33;;;;;;;19.42;3.40;;;12.40;74.00;;;;;;5000381;28;20388;-73
2021/05/10 05:53:59;;;;;;;15.75;2.50;;;12.30;73.30;;;;;;5000603;28;20026;-73
2021/05/10 05:56:26;;;;;;;15.15;2.50;;;12.30;73.20;;;;;;4999956;28;20069;-73
2021/05/10 05:58:52;;;;;;;15.88;2.67;;;12.40;73.10;;;;;;5000817;28;20049;-73
2021/05/10 06:01:19;;;;;;;16.58;2.78;;;12.40;72.90;;;;;;4998288;28;20033;-73
2021/05/10 06:03:44;;;;;;;14.90;2.67;;;12.40;73.00;;;;;;4982413;28;20038;-72
2021/05/10 06:06:10;;;;;;;13.50;2.85;;;12.50;73.20;;;;;;4998658;28;20033;-73
2021/05/10 06:08:39;;;;;;;14.23;2.72;;;12.50;73.50;;;;;;4998364;28;20034;-72
2021/05/10 06:11:07;;;;;;;14.23;2.92;;;12.50;73.40;;;;;;4999088;28;20041;-73
2021/05/10 06:13:34;;;;;;;18.45;3.03;;;12.60;73.10;;;;;;4998658;28;20046;-73
2021/05/10 06:16:00;;;;;;;14.85;3.10;;;12.70;73.50;;;;;;4999373;28;20050;-73
2021/05/10 06:18:26;;;;;;;15.82;2.67;;;12.70;73.70;;;;;;4999918;28;20050;-73
2021/05/10 06:20:52;;;;;;;21.35;3.75;;;12.90;73.30;;;;;;4999400;28;20018;-73
2021/05/10 06:23:19;;;;;;;17.77;2.67;;;13.00;73.30;;;;;;4999579;28;20033;-73
2021/05/10 06:25:44;;;;;;;13.23;2.60;;;13.00;72.80;;;;;;4999336;28;20026;-73
2021/05/10 06:28:10;;;;;;;14.77;2.88;;;13.10;72.80;;;;;;4994834;28;20054;-73
2021/05/10 06:30:36;;;;;;;13.75;2.80;;;13.20;72.80;;;;;;4992196;28;20046;-73
2021/05/10 06:33:02;;;;;;;14.50;2.63;;;13.30;72.90;;;;;;4999810;28;20030;-73
2021/05/10 06:35:27;;;;;;;15.27;2.88;;;13.30;72.40;;;;;;5000028;28;20056;-73
2021/05/10 06:37:53;;;;;;;16.63;3.15;;;13.40;72.10;;;;;;4999645;28;20027;-73
2021/05/10 06:40:19;;;;;;;14.75;2.60;;;13.60;72.10;;;;;;4993124;28;20034;-73
2021/05/10 06:42:45;;;;;;;16.02;2.47;;;13.70;71.60;;;;;;4999720;28;20034;-73
2021/05/10 06:45:11;;;;;;;16.38;2.40;;;13.80;71.60;;;;;;4998745;28;20125;-73
2021/05/10 06:47:41;;;;;;;18.08;2.97;;;13.90;71.10;;;;;;4995745;28;20047;-73
2021/05/10 06:50:08;;;;;;;13.63;2.75;;;14.00;70.70;;;;;;4999928;28;20040;-73
2021/05/10 06:52:34;;;;;;;17.83;2.60;;;14.10;70.20;;;;;;4999752;28;20023;-73
2021/05/10 06:55:01;;;;;;;14.30;1.92;;;14.20;70.50;;;;;;4999741;28;20027;-73
2021/05/10 06:57:26;;;;;;;23.35;3.00;;;14.30;70.10;;;;;;4999780;28;20022;-73
2021/05/10 06:59:52;;;;;;;12.07;2.53;;;14.40;69.70;;;;;;4999482;28;20018;-73
2021/05/10 07:02:20;;;;;;;10.88;2.25;;;14.50;69.80;;;;;;4999400;28;20053;-73
2021/05/10 07:04:46;;;;;;;18.05;2.45;;;14.60;69.80;;;;;;4999525;28;20041;-73
2021/05/10 07:07:12;;;;;;;13.65;2.80;;;14.80;69.60;;;;;;4999241;28;20489;-73
2021/05/10 07:09:38;;;;;;;13.32;2.58;;;14.90;69.10;;;;;;4999257;28;20104;-73
2021/05/10 07:12:04;;;;;;;11.63;2.25;;;15.00;68.90;;;;;;4999498;28;20070;-73
2021/05/10 07:14:30;;;;;;;12.80;2.67;;;15.10;68.50;;;;;;4994596;28;20027;-73
2021/05/10 07:16:56;;;;;;;16.35;2.85;;;15.20;68.70;;;;;;4992859;28;20085;-73
2021/05/10 07:19:23;;;;;;;11.45;2.50;;;15.40;68.20;;;;;;4998946;28;20595;-73
2021/05/10 07:21:48;;;;;;;17.35;2.35;;;15.60;68.10;;;;;;4999559;28;20029;-74
2021/05/10 07:24:15;;;;;;;13.00;2.22;;;15.80;67.30;;;;;;4998505;28;20022;-73
2021/05/10 07:26:41;;;;;;;12.80;2.90;;;16.20;66.30;;;;;;4984667;28;20117;-75
2021/05/10 07:29:07;;;;;;;16.77;4.57;;;16.40;66.10;;;;;;4980653;28;20054;-73
2021/05/10 07:31:33;;;;;;;16.95;5.53;;;16.50;64.60;;;;;;4998561;28;20105;-75
2021/05/10 07:33:59;;;;;;;10.27;2.47;;;16.60;63.70;;;;;;4998148;28;20489;-73
2021/05/10 07:36:25;;;;;;;14.68;2.45;;;16.40;62.80;;;;;;4998341;28;20029;-79
2021/05/10 07:38:51;;;;;;;13.73;2.50;;;16.30;61.80;;;;;;4997714;28;20023;-74
2021/05/10 07:41:16;;;;;;;12.90;3.00;;;16.00;62.30;;;;;;4998298;28;20077;-73
2021/05/10 07:43:42;;;;;;;12.75;2.22;;;15.80;63.10;;;;;;4997526;28;20026;-73
2021/05/10 07:46:08;;;;;;;12.15;2.35;;;15.60;63.40;;;;;;4998119;28;20041;-74
2021/05/10 07:48:34;;;;;;;12.48;2.97;;;15.50;64.50;;;;;;4978652;28;20589;-75
2021/05/10 07:51:00;;;;;;;13.13;2.42;;;15.80;65.00;;;;;;4997477;28;20086;-74
2021/05/10 07:53:26;;;;;;;14.13;2.63;;;16.10;66.20;;;;;;4997428;28;20030;-75
2021/05/10 07:55:53;;;;;;;12.70;2.40;;;16.70;66.20;;;;;;4997026;28;20023;-74
2021/05/10 07:58:26;;;;;;;12.70;2.97;;;17.20;65.30;;;;;;4998350;28;20032;-75
2021/05/10 08:00:56;;;;;;;12.75;2.65;;;17.80;62.10;;;;;;4998227;28;20027;-75
2021/05/10 08:03:23;;;;;;;12.38;2.63;;;18.40;61.50;;;;;;4998292;28;20481;-75
2021/05/10 08:05:49;;;;;;;12.07;2.78;;;18.80;61.10;;;;;;4998387;28;20096;-76
2021/05/10 08:08:18;;;;;;;11.45;2.85;;;19.10;59.80;;;;;;4997901;28;20031;-75
2021/05/10 08:10:44;;;;;;;12.18;2.10;;;19.50;59.50;;;;;;4998412;28;20064;-75
2021/05/10 08:13:11;;;;;;;10.80;2.38;;;19.60;57.60;;;;;;4998065;28;20072;-75
2021/05/10 08:15:37;;;;;;;10.20;2.00;;;19.60;57.80;;;;;;4998002;28;20022;-75
2021/05/10 08:18:03;;;;;;;9.25;2.08;;;19.50;56.80;;;;;;4998670;28;20477;-76
2021/05/10 08:20:29;;;;;;;10.90;2.15;;;19.30;57.10;;;;;;4998359;28;20105;-76
2021/05/10 08:22:55;;;;;;;16.45;3.13;;;19.20;58.30;;;;;;4997685;28;20025;-76
2021/05/10 08:25:21;;;;;;;11.57;2.10;;;19.20;57.60;;;;;;4998488;28;20022;-75
2021/05/10 08:27:46;;;;;;;8.52;2.05;;;19.40;59.00;;;;;;4980641;28;20098;-76
2021/05/10 08:30:14;;;;;;;7.97;2.00;;;19.80;56.40;;;;;;4997917;28;20065;-75
2021/05/10 08:32:40;;;;;;;7.88;1.98;;;20.20;55.50;;;;;;4968017;28;20042;-75
2021/05/10 08:35:07;;;;;;;9.38;2.08;;;20.60;54.90;;;;;;4997947;28;20378;-76
2021/05/10 08:37:33;;;;;;;9.73;2.00;;;21.10;53.00;;;;;;4997347;28;20070;-76
2021/05/10 08:39:59;;;;;;;10.57;2.33;;;21.50;53.70;;;;;;4969724;28;20027;-76
2021/05/10 08:42:27;;;;;;;9.95;2.60;;;21.90;53.00;;;;;;4997758;28;20057;-75
2021/05/10 08:44:53;;;;;;;11.30;2.28;;;22.30;52.70;;;;;;4997600;28;20026;-75
2021/05/10 08:47:31;;;;;;;13.00;2.30;;;22.70;51.20;;;;;;4997758;28;20034;-76
2021/05/10 08:49:58;;;;;;;11.63;2.22;;;23.10;52.40;;;;;;4997384;28;20635;-76
2021/05/10 08:52:25;;;;;;;10.27;2.45;;;23.50;47.80;;;;;;4997734;28;20034;-76
2021/05/10 08:54:51;;;;;;;9.40;2.05;;;23.70;46.70;;;;;;4997506;28;20473;-75
2021/05/10 08:57:16;;;;;;;11.05;2.53;;;23.80;46.20;;;;;;4992276;28;20049;-75
2021/05/10 08:59:43;;;;;;;12.93;2.20;;;23.70;46.10;;;;;;4997370;28;20027;-75
2021/05/10 09:02:10;;;;;;;8.27;1.92;;;23.70;45.10;;;;;;4984263;28;20037;-75
2021/05/10 09:04:38;;;;;;;9.98;2.08;;;23.60;46.60;;;;;;4997689;28;20029;-75
2021/05/10 09:07:24;;;;;;;13.75;2.70;;;23.60;45.50;;;;;;4997662;28;20561;-75
2021/05/10 09:10:01;;;;;;;11.20;2.40;;;23.30;46.40;;;;;;4997622;28;20037;-75
2021/05/10 09:12:55;;;;;;;13.52;2.60;;;22.90;46.10;;;;;;4997533;28;20110;-75
2021/05/10 09:15:28;;;;;;;11.45;2.65;;;22.50;47.10;;;;;;4987639;28;20057;-76
2021/05/10 09:17:56;;;;;;;9.45;2.45;;;22.40;47.60;;;;;;4997319;28;20033;-75
2021/05/10 09:20:24;;;;;;;12.88;2.58;;;22.60;48.70;;;;;;4997566;28;20031;-75
2021/05/10 09:22:53;;;;;;;10.07;1.90;;;23.00;48.70;;;;;;4979812;28;20496;-75
2021/05/10 09:25:19;;;;;;;10.50;2.53;;;23.10;47.30;;;;;;4997448;28;20037;-75
2021/05/10 09:27:46;;;;;;;11.00;2.33;;;22.90;45.70;;;;;;4997379;28;20113;-75
2021/05/10 09:30:15;;;;;;;8.63;1.80;;;22.50;46.30;;;;;;4997006;28;20081;-75
2021/05/10 09:32:46;;;;;;;8.32;1.88;;;22.20;47.00;;;;;;4996815;28;20023;-76
2021/05/10 09:35:25;;;;;;;9.23;2.17;;;22.20;48.40;;;;;;4996340;28;20027;-76
2021/05/10 09:37:58;;;;;;;10.50;2.00;;;22.50;48.50;;;;;;4996686;28;20026;-76
2021/05/10 09:40:27;;;;;;;10.27;1.90;;;23.10;48.10;;;;;;4985765;28;20049;-76
2021/05/10 09:42:56;;;;;;;10.95;2.35;;;23.70;47.70;;;;;;4996774;28;20049;-76
2021/05/10 09:45:57;;;;;;;10.65;2.03;;;24.20;46.00;;;;;;4996865;28;20037;-76
2021/05/10 09:48:34;;;;;;;8.23;2.42;;;24.80;45.80;;;;;;4996683;28;20022;-76
2021/05/10 09:51:04;;;;;;;8.85;2.00;;;25.00;44.80;;;;;;5000167;28;20061;-74
2021/05/10 09:53:30;;;;;;;8.55;1.90;;;25.30;43.10;;;;;;5000030;28;20509;-74
2021/05/10 09:55:56;;;;;;;10.98;2.65;;;25.30;41.90;;;;;;5000436;28;20034;-74
2021/05/10 09:58:25;;;;;;;11.23;2.35;;;25.10;40.20;;;;;;4982691;28;20113;-74
2021/05/10 10:00:58;;;;;;;9.07;2.00;;;24.90;41.80;;;;;;4988720;28;20030;-74
2021/05/10 10:03:35;;;;;;;8.70;1.98;;;25.00;44.50;;;;;;4997531;28;20060;-74
2021/05/10 10:06:04;;;;;;;7.70;1.75;;;25.60;42.50;;;;;;4999690;28;20019;-73
2021/05/10 10:08:30;;;;;;;11.65;2.40;;;26.00;42.00;;;;;;5000166;28;20030;-74
2021/05/10 10:10:57;;;;;;;10.68;2.20;;;25.80;39.70;;;;;;5000762;28;20058;-73
2021/05/10 10:13:23;;;;;;;8.65;2.20;;;25.10;41.30;;;;;;4983070;28;20490;-73
2021/05/10 10:15:49;;;;;;;9.45;1.85;;;24.60;41.80;;;;;;4982681;28;20074;-74
2021/05/10 10:18:18;;;;;;;10.75;2.10;;;24.60;43.10;;;;;;5000438;28;20076;-73
2021/05/10 10:20:45;;;;;;;8.38;2.13;;;25.00;41.90;;;;;;5000622;28;20037;-73
2021/05/10 10:23:13;;;;;;;9.68;1.95;;;24.90;42.20;;;;;;4988419;28;20034;-74
2021/05/10 10:25:40;;;;;;;9.05;2.15;;;24.70;41.20;;;;;;4983026;28;20030;-74
2021/05/10 10:28:07;;;;;;;10.48;1.50;;;25.10;42.20;;;;;;5000272;28;20093;-73
2021/05/10 10:30:38;;;;;;;9.02;2.40;;;25.70;41.50;;;;;;5000015;28;20073;-74
2021/05/10 10:33:11;;;;;;;10.68;1.98;;;26.40;41.30;;;;;;5000194;28;20026;-74
2021/05/10 10:35:43;;;;;;;7.10;1.92;;;27.00;40.90;;;;;;5000272;28;20022;-74
2021/05/10 10:38:11;;;;;;;7.75;2.15;;;27.60;41.00;;;;;;4999647;28;20543;-74
2021/05/10 10:40:37;;;;;;;8.40;1.77;;;28.20;41.70;;;;;;4999854;28;20026;-74
2021/05/10 10:43:23;;;;;;;7.93;1.83;;;28.80;41.90;;;;;;4999951;28;20069;-74
2021/05/10 10:46:25;;;;;;;9.82;2.00;;;29.60;41.40;;;;;;4987231;28;20026;-74
2021/05/10 10:48:52;;;;;;;7.93;2.00;;;30.30;39.00;;;;;;4999807;28;20037;-74
2021/05/10 10:51:19;;;;;;;11.70;1.80;;;30.10;36.80;;;;;;4988401;28;20042;-73
2021/05/10 10:53:51;;;;;;;10.32;2.00;;;29.30;36.40;;;;;;4998395;28;20025;-73
2021/05/10 10:56:17;;;;;;;8.70;1.85;;;28.50;36.90;;;;;;5000131;28;20022;-73
2021/05/10 10:58:45;;;;;;;7.90;1.73;;;27.90;38.10;;;;;;4999623;28;20097;-74
2021/05/10 11:01:13;;;;;;;8.98;1.70;;;27.80;38.10;;;;;;4999424;28;20085;-73
2021/05/10 11:03:40;;;;;;;7.55;1.70;;;27.80;39.20;;;;;;4999615;28;20054;-74
2021/05/10 11:06:07;;;;;;;9.65;1.70;;;28.20;39.10;;;;;;4999563;28;20511;-73
2021/05/10 11:08:46;;;;;;;12.05;2.33;;;28.10;37.70;;;;;;4999160;28;20022;-74
2021/05/10 11:11:34;;;;;;;8.40;1.95;;;27.70;38.50;;;;;;4999146;28;20130;-74
2021/05/10 11:14:04;;;;;;;9.52;1.73;;;27.60;39.40;;;;;;4989306;28;20038;-74
2021/05/10 11:16:51;;;;;;;8.52;2.30;;;27.70;38.30;;;;;;4999227;28;20054;-73
2021/05/10 11:19:36;;;;;;;9.63;1.98;;;27.30;37.70;;;;;;4999302;28;20544;-73
2021/05/10 11:22:23;;;;;;;8.65;2.00;;;26.50;37.60;;;;;;4999209;28;20022;-73
2021/05/10 11:24:48;;;;;;;9.93;2.20;;;25.90;38.60;;;;;;4999160;28;20555;-73
2021/05/10 11:27:30;;;;;;;8.30;1.80;;;25.60;40.20;;;;;;4999026;28;20022;-73
2021/05/10 11:29:57;;;;;;;10.48;2.13;;;25.70;40.40;;;;;;4999084;28;20022;-73
2021/05/10 11:32:27;;;;;;;11.75;2.28;;;25.70;40.10;;;;;;4981490;28;20080;-74
2021/05/10 11:34:53;;;;;;;9.10;1.77;;;25.40;40.60;;;;;;4999059;28;20030;-73
2021/05/10 11:37:27;;;;;;;11.93;2.45;;;25.30;40.90;;;;;;4998408;28;20066;-73
2021/05/10 11:39:55;;;;;;;10.93;2.70;;;25.40;40.30;;;;;;4999045;28;20022;-73
2021/05/10 11:42:28;;;;;;;6.85;1.67;;;25.30;39.90;;;;;;4981245;28;20034;-73
2021/05/10 11:45:01;;;;;;;8.95;2.10;;;24.80;40.50;;;;;;4998728;28;20014;-73
2021/05/10 11:47:27;;;;;;;7.63;1.70;;;24.10;42.60;;;;;;4998689;28;20036;-73
2021/05/10 11:49:53;;;;;;;6.93;1.70;;;23.70;43.40;;;;;;4998594;28;20488;-73
2021/05/10 11:52:25;;;;;;;5.75;1.30;;;23.90;44.20;;;;;;4985898;28;20500;-74
2021/05/10 11:54:59;;;;;;;8.05;1.58;;;24.60;43.20;;;;;;4998681;28;20426;-74
2021/05/10 11:57:28;;;;;;;12.25;2.05;;;25.10;41.20;;;;;;4998752;28;20128;-73
2021/05/10 12:02:29;;;;;;;10.15;2.35;;;25.50;40.60;;;;;;4998572;28;20117;-73
2021/05/10 12:04:59;;;;;;;11.48;2.13;;;25.50;41.50;;;;;;4998439;28;20030;-73
2021/05/10 12:07:28;;;;;;;10.35;2.28;;;25.40;41.00;;;;;;4998224;28;20406;-73
2021/05/10 12:09:57;;;;;;;11.35;2.28;;;25.20;40.70;;;;;;4998448;28;20023;-73
2021/05/10 12:12:37;;;;;;;9.23;2.20;;;24.80;40.80;;;;;;4997960;28;20053;-74
2021/05/10 12:15:12;;;;;;;9.20;2.00;;;24.20;41.50;;;;;;4986632;28;20021;-73
2021/05/10 12:17:43;;;;;;;9.93;1.92;;;23.50;43.50;;;;;;4998046;28;20057;-73
2021/05/10 12:20:15;;;;;;;8.90;2.13;;;23.10;43.10;;;;;;4998410;28;20034;-74
2021/05/10 12:22:49;;;;;;;8.18;1.95;;;22.60;43.90;;;;;;4997427;28;20029;-73
2021/05/10 12:25:27;;;;;;;12.88;2.75;;;22.30;44.50;;;;;;4998418;28;20113;-73
2021/05/10 12:27:59;;;;;;;8.57;2.03;;;22.00;44.40;;;;;;4985948;28;20073;-73
2021/05/10 12:30:32;;;;;;;9.93;1.90;;;21.70;43.40;;;;;;4998232;28;20037;-73
2021/05/10 12:33:04;;;;;;;7.53;1.80;;;21.50;43.80;;;;;;4998153;28;20022;-73
2021/05/10 12:35:32;;;;;;;9.80;1.95;;;21.30;45.30;;;;;;4997962;28;20473;-73
2021/05/10 12:38:00;;;;;;;8.65;1.70;;;21.20;45.20;;;;;;4997774;28;20023;-73
2021/05/10 12:40:45;;;;;;;8.77;1.80;;;21.10;44.40;;;;;;4997983;28;20034;-73
2021/05/10 12:43:18;;;;;;;7.55;1.90;;;21.00;43.40;;;;;;4997822;28;20026;-73
2021/05/10 12:46:00;;;;;;;9.68;1.77;;;20.90;44.40;;;;;;4986247;28;20034;-73
2021/05/10 12:48:39;;;;;;;9.57;1.70;;;20.90;44.70;;;;;;4997899;28;20065;-73
2021/05/10 12:51:21;;;;;;;10.25;2.05;;;20.80;44.90;;;;;;4988365;28;20038;-73